sensor_id;sensor_type;location;lat;lon;timestamp;pressure;altitude;pressure_sealevel;temperature;humidity
23223;BME280;11780;13.904;100.620;2023-01-16T00:02:16;101135.38;;;28.80;64.90
23223;BME280;11780;13.904;100.620;2023-01-16T00:04:46;101131.28;;;28.78;64.79
23223;BME280;11780;13.904;100.620;2023-01-16T00:07:16;101143.63;;;28.80;65.01
23223;BME280;11780;13.904;100.620;2023-01-16T00:09:46;101148.63;;;28.78;65.21
23223;BME280;11780;13.904;100.620;2023-01-16T00:12:35;101155.25;;;28.77;65.32
23223;BME280;11780;13.904;100.620;2023-01-16T00:15:05;101156.34;;;28.76;65.43
23223;BME280;11780;13.904;100.620;2023-01-16T00:17:35;101161.06;;;28.76;65.44
23223;BME280;11780;13.904;100.620;2023-01-16T00:20:06;101170.13;;;28.76;65.41
23223;BME280;11780;13.904;100.620;2023-01-16T00:22:36;101176.75;;;28.75;65.46
23223;BME280;11780;13.904;100.620;2023-01-16T00:25:07;101183.31;;;28.79;65.39
23223;BME280;11780;13.904;100.620;2023-01-16T00:27:37;101189.41;;;28.76;65.44
23223;BME280;11780;13.904;100.620;2023-01-16T00:30:08;101192.97;;;28.77;65.59
23223;BME280;11780;13.904;100.620;2023-01-16T00:32:38;101205.53;;;28.83;65.56
23223;BME280;11780;13.904;100.620;2023-01-16T00:35:08;101203.69;;;28.78;65.66
23223;BME280;11780;13.904;100.620;2023-01-16T00:37:38;101214.09;;;28.81;65.70
23223;BME280;11780;13.904;100.620;2023-01-16T00:40:09;101213.28;;;28.81;65.66
23223;BME280;11780;13.904;100.620;2023-01-16T00:42:40;101229.00;;;28.80;65.65
23223;BME280;11780;13.904;100.620;2023-01-16T00:45:10;101223.47;;;28.80;65.82
23223;BME280;11780;13.904;100.620;2023-01-16T00:47:40;101229.19;;;28.84;65.67
23223;BME280;11780;13.904;100.620;2023-01-16T00:50:11;101233.69;;;28.80;65.93
23223;BME280;11780;13.904;100.620;2023-01-16T00:52:41;101236.13;;;28.81;66.01
23223;BME280;11780;13.904;100.620;2023-01-16T00:55:11;101239.19;;;28.80;66.05
23223;BME280;11780;13.904;100.620;2023-01-16T00:57:41;101247.16;;;28.81;66.09
23223;BME280;11780;13.904;100.620;2023-01-16T01:00:11;101251.31;;;28.79;66.48
23223;BME280;11780;13.904;100.620;2023-01-16T01:02:41;101253.56;;;28.77;66.44
23223;BME280;11780;13.904;100.620;2023-01-16T01:05:11;101247.75;;;28.78;66.47
23223;BME280;11780;13.904;100.620;2023-01-16T01:07:41;101264.25;;;28.78;66.64
23223;BME280;11780;13.904;100.620;2023-01-16T01:10:11;101268.34;;;28.81;66.40
23223;BME280;11780;13.904;100.620;2023-01-16T01:12:41;101260.69;;;28.78;66.87
23223;BME280;11780;13.904;100.620;2023-01-16T01:15:11;101267.00;;;28.78;66.78
23223;BME280;11780;13.904;100.620;2023-01-16T01:17:41;101277.44;;;28.81;66.85
23223;BME280;11780;13.904;100.620;2023-01-16T01:20:11;101280.56;;;28.75;67.06
23223;BME280;11780;13.904;100.620;2023-01-16T01:22:41;101286.50;;;28.82;67.00
23223;BME280;11780;13.904;100.620;2023-01-16T01:25:13;101289.25;;;28.82;66.86
23223;BME280;11780;13.904;100.620;2023-01-16T01:27:43;101299.41;;;28.86;66.59
23223;BME280;11780;13.904;100.620;2023-01-16T01:30:13;101293.66;;;28.83;66.74
23223;BME280;11780;13.904;100.620;2023-01-16T01:32:43;101303.53;;;28.84;67.30
23223;BME280;11780;13.904;100.620;2023-01-16T01:35:14;101311.22;;;28.87;66.89
23223;BME280;11780;13.904;100.620;2023-01-16T01:37:45;101319.25;;;28.83;67.08
23223;BME280;11780;13.904;100.620;2023-01-16T01:40:17;101322.03;;;28.83;67.21
23223;BME280;11780;13.904;100.620;2023-01-16T01:42:46;101330.81;;;28.85;67.21
23223;BME280;11780;13.904;100.620;2023-01-16T01:45:25;101331.91;;;28.84;67.51
23223;BME280;11780;13.904;100.620;2023-01-16T01:56:39;101339.59;;;28.88;67.39
23223;BME280;11780;13.904;100.620;2023-01-16T01:59:09;101341.22;;;28.89;67.60
23223;BME280;11780;13.904;100.620;2023-01-16T02:01:40;101343.97;;;28.89;67.76
23223;BME280;11780;13.904;100.620;2023-01-16T02:04:15;101347.25;;;28.91;67.83
23223;BME280;11780;13.904;100.620;2023-01-16T02:06:56;101351.41;;;28.88;67.94
23223;BME280;11780;13.904;100.620;2023-01-16T02:09:28;101356.63;;;28.90;67.99
23223;BME280;11780;13.904;100.620;2023-01-16T02:12:01;101358.25;;;28.91;67.95
23223;BME280;11780;13.904;100.620;2023-01-16T02:14:39;101355.50;;;28.91;67.91
23223;BME280;11780;13.904;100.620;2023-01-16T02:17:18;101355.50;;;28.91;67.76
23223;BME280;11780;13.904;100.620;2023-01-16T02:31:43;101359.31;;;28.95;68.10
23223;BME280;11780;13.904;100.620;2023-01-16T02:34:30;101357.09;;;28.97;67.79
23223;BME280;11780;13.904;100.620;2023-01-16T02:45:54;101357.03;;;29.02;67.57
23223;BME280;11780;13.904;100.620;2023-01-16T02:48:34;101355.38;;;29.01;67.69
23223;BME280;11780;13.904;100.620;2023-01-16T02:54:16;101346.81;;;29.02;67.85
23223;BME280;11780;13.904;100.620;2023-01-16T02:59:34;101347.34;;;29.05;67.77
23223;BME280;11780;13.904;100.620;2023-01-16T03:02:05;101343.75;;;29.04;67.96
23223;BME280;11780;13.904;100.620;2023-01-16T03:15:44;101340.41;;;29.07;67.95
23223;BME280;11780;13.904;100.620;2023-01-16T03:18:31;101338.50;;;29.08;67.90
23223;BME280;11780;13.904;100.620;2023-01-16T03:23:57;101342.56;;;29.10;67.96
23223;BME280;11780;13.904;100.620;2023-01-16T03:26:36;101340.94;;;29.09;67.87
23223;BME280;11780;13.904;100.620;2023-01-16T03:29:35;101337.91;;;29.11;67.86
23223;BME280;11780;13.904;100.620;2023-01-16T03:32:36;101335.66;;;29.13;67.71
23223;BME280;11780;13.904;100.620;2023-01-16T03:35:33;101334.03;;;29.12;67.88
23223;BME280;11780;13.904;100.620;2023-01-16T03:38:08;101332.88;;;29.13;67.93
23223;BME280;11780;13.904;100.620;2023-01-16T03:40:42;101326.06;;;29.10;67.96
23223;BME280;11780;13.904;100.620;2023-01-16T03:43:38;101319.94;;;29.13;67.72
23223;BME280;11780;13.904;100.620;2023-01-16T03:46:12;101327.91;;;29.15;67.45
23223;BME280;11780;13.904;100.620;2023-01-16T03:48:51;101323.22;;;29.15;67.54
23223;BME280;11780;13.904;100.620;2023-01-16T03:51:25;101313.31;;;29.14;67.49
23223;BME280;11780;13.904;100.620;2023-01-16T03:54:03;101315.50;;;29.17;67.58
23223;BME280;11780;13.904;100.620;2023-01-16T03:56:45;101310.78;;;29.18;67.82
23223;BME280;11780;13.904;100.620;2023-01-16T03:59:17;101306.41;;;29.17;68.00
23223;BME280;11780;13.904;100.620;2023-01-16T04:01:54;101309.97;;;29.17;67.32
23223;BME280;11780;13.904;100.620;2023-01-16T04:04:32;101308.56;;;29.20;67.51
23223;BME280;11780;13.904;100.620;2023-01-16T04:07:50;101303.84;;;29.21;67.24
23223;BME280;11780;13.904;100.620;2023-01-16T04:10:39;101291.50;;;29.18;67.17
23223;BME280;11780;13.904;100.620;2023-01-16T04:13:14;101292.84;;;29.21;66.96
23223;BME280;11780;13.904;100.620;2023-01-16T04:15:50;101285.41;;;29.21;66.58
23223;BME280;11780;13.904;100.620;2023-01-16T04:18:26;101283.44;;;29.22;66.87
23223;BME280;11780;13.904;100.620;2023-01-16T04:20:59;101285.63;;;29.25;66.69
23223;BME280;11780;13.904;100.620;2023-01-16T04:23:30;101286.19;;;29.22;67.35
23223;BME280;11780;13.904;100.620;2023-01-16T04:26:00;101281.53;;;29.22;67.04
23223;BME280;11780;13.904;100.620;2023-01-16T04:28:30;101272.94;;;29.24;66.85
23223;BME280;11780;13.904;100.620;2023-01-16T04:31:01;101271.03;;;29.24;66.67
23223;BME280;11780;13.904;100.620;2023-01-16T04:33:31;101255.31;;;29.25;67.00
23223;BME280;11780;13.904;100.620;2023-01-16T04:36:01;101254.19;;;29.26;66.76
23223;BME280;11780;13.904;100.620;2023-01-16T04:38:31;101245.41;;;29.24;65.96
23223;BME280;11780;13.904;100.620;2023-01-16T04:41:02;101249.78;;;29.25;66.08
23223;BME280;11780;13.904;100.620;2023-01-16T04:43:32;101248.41;;;29.27;65.76
23223;BME280;11780;13.904;100.620;2023-01-16T04:46:02;101239.28;;;29.27;66.14
23223;BME280;11780;13.904;100.620;2023-01-16T04:48:32;101243.69;;;29.28;65.85
23223;BME280;11780;13.904;100.620;2023-01-16T04:51:01;101237.06;;;29.29;65.40
23223;BME280;11780;13.904;100.620;2023-01-16T04:53:31;101235.94;;;29.30;65.82
23223;BME280;11780;13.904;100.620;2023-01-16T04:56:01;101227.69;;;29.30;65.19
23223;BME280;11780;13.904;100.620;2023-01-16T04:58:33;101228.19;;;29.32;65.49
23223;BME280;11780;13.904;100.620;2023-01-16T05:01:03;101216.66;;;29.30;65.96
23223;BME280;11780;13.904;100.620;2023-01-16T05:03:33;101217.97;;;29.32;65.67
23223;BME280;11780;13.904;100.620;2023-01-16T05:06:03;101200.66;;;29.32;65.74
23223;BME280;11780;13.904;100.620;2023-01-16T05:08:33;101202.56;;;29.31;65.94
23223;BME280;11780;13.904;100.620;2023-01-16T05:11:03;101189.63;;;29.32;65.65
23223;BME280;11780;13.904;100.620;2023-01-16T05:13:33;101189.63;;;29.32;65.58
23223;BME280;11780;13.904;100.620;2023-01-16T05:16:03;101185.47;;;29.35;65.13
23223;BME280;11780;13.904;100.620;2023-01-16T05:18:35;101173.09;;;29.32;65.53
23223;BME280;11780;13.904;100.620;2023-01-16T05:21:06;101168.09;;;29.34;65.38
23223;BME280;11780;13.904;100.620;2023-01-16T05:23:36;101170.84;;;29.34;65.17
23223;BME280;11780;13.904;100.620;2023-01-16T05:26:07;101160.66;;;29.35;64.86
23223;BME280;11780;13.904;100.620;2023-01-16T05:28:37;101153.22;;;29.35;64.03
23223;BME280;11780;13.904;100.620;2023-01-16T05:31:07;101154.84;;;29.36;64.12
23223;BME280;11780;13.904;100.620;2023-01-16T05:33:39;101130.88;;;29.37;64.61
23223;BME280;11780;13.904;100.620;2023-01-16T05:36:09;101140.47;;;29.39;63.99
23223;BME280;11780;13.904;100.620;2023-01-16T05:38:39;101133.03;;;29.40;63.96
23223;BME280;11780;13.904;100.620;2023-01-16T05:41:10;101122.00;;;29.40;64.42
23223;BME280;11780;13.904;100.620;2023-01-16T05:43:42;101119.25;;;29.40;64.21
23223;BME280;11780;13.904;100.620;2023-01-16T05:46:12;101107.38;;;29.39;64.41
23223;BME280;11780;13.904;100.620;2023-01-16T05:48:43;101112.91;;;29.39;64.40
23223;BME280;11780;13.904;100.620;2023-01-16T05:51:13;101105.16;;;29.41;64.24
23223;BME280;11780;13.904;100.620;2023-01-16T05:53:43;101101.59;;;29.41;64.61
23223;BME280;11780;13.904;100.620;2023-01-16T05:56:12;101091.38;;;29.41;64.52
23223;BME280;11780;13.904;100.620;2023-01-16T05:58:42;101082.31;;;29.41;64.36
23223;BME280;11780;13.904;100.620;2023-01-16T06:01:12;101079.84;;;29.39;64.29
23223;BME280;11780;13.904;100.620;2023-01-16T06:03:42;101079.53;;;29.41;63.66
23223;BME280;11780;13.904;100.620;2023-01-16T06:06:12;101065.78;;;29.41;62.86
23223;BME280;11780;13.904;100.620;2023-01-16T06:08:46;101068.22;;;29.42;63.41
23223;BME280;11780;13.904;100.620;2023-01-16T06:11:16;101058.81;;;29.43;62.62
23223;BME280;11780;13.904;100.620;2023-01-16T06:13:46;101045.03;;;29.43;63.06
23223;BME280;11780;13.904;100.620;2023-01-16T06:16:17;101043.09;;;29.44;62.16
23223;BME280;11780;13.904;100.620;2023-01-16T06:18:47;101035.34;;;29.46;62.03
23223;BME280;11780;13.904;100.620;2023-01-16T06:21:16;101026.56;;;29.44;62.73
23223;BME280;11780;13.904;100.620;2023-01-16T06:23:46;101034.53;;;29.45;61.03
23223;BME280;11780;13.904;100.620;2023-01-16T06:26:16;101025.94;;;29.47;62.27
23223;BME280;11780;13.904;100.620;2023-01-16T06:28:47;101028.69;;;29.47;62.43
23223;BME280;11780;13.904;100.620;2023-01-16T06:31:17;101016.34;;;29.44;62.37
23223;BME280;11780;13.904;100.620;2023-01-16T06:33:47;101006.13;;;29.45;62.89
23223;BME280;11780;13.904;100.620;2023-01-16T06:36:17;100999.81;;;29.44;62.45
23223;BME280;11780;13.904;100.620;2023-01-16T06:38:47;101001.47;;;29.45;62.19
23223;BME280;11780;13.904;100.620;2023-01-16T06:41:17;100988.81;;;29.44;61.65
23223;BME280;11780;13.904;100.620;2023-01-16T06:43:47;100987.69;;;29.45;61.97
23223;BME280;11780;13.904;100.620;2023-01-16T06:46:17;100990.44;;;29.45;61.52
23223;BME280;11780;13.904;100.620;2023-01-16T06:48:47;100984.09;;;29.45;61.09
23223;BME280;11780;13.904;100.620;2023-01-16T06:51:19;100974.19;;;29.44;60.98
23223;BME280;11780;13.904;100.620;2023-01-16T06:53:49;100971.34;;;29.49;60.09
23223;BME280;11780;13.904;100.620;2023-01-16T06:56:19;100964.81;;;29.45;60.12
23223;BME280;11780;13.904;100.620;2023-01-16T06:58:49;100961.75;;;29.46;59.40
23223;BME280;11780;13.904;100.620;2023-01-16T07:01:19;100955.13;;;29.47;59.13
23223;BME280;11780;13.904;100.620;2023-01-16T07:03:50;100957.03;;;29.47;58.84
23223;BME280;11780;13.904;100.620;2023-01-16T07:06:20;100945.50;;;29.45;59.59
23223;BME280;11780;13.904;100.620;2023-01-16T07:08:49;100945.22;;;29.46;58.48
23223;BME280;11780;13.904;100.620;2023-01-16T07:11:20;100951.25;;;29.49;59.83
23223;BME280;11780;13.904;100.620;2023-01-16T07:13:50;100938.06;;;29.45;59.44
23223;BME280;11780;13.904;100.620;2023-01-16T07:16:41;100926.22;;;29.45;59.10
23223;BME280;11780;13.904;100.620;2023-01-16T07:19:29;100924.28;;;29.45;59.14
23223;BME280;11780;13.904;100.620;2023-01-16T07:22:18;100923.97;;;29.47;59.23
23223;BME280;11780;13.904;100.620;2023-01-16T07:25:16;100923.16;;;29.46;59.66
23223;BME280;11780;13.904;100.620;2023-01-16T07:27:49;100914.06;;;29.46;59.50
23223;BME280;11780;13.904;100.620;2023-01-16T07:30:21;100909.06;;;29.48;58.67
23223;BME280;11780;13.904;100.620;2023-01-16T07:32:51;100908.28;;;29.47;57.14
23223;BME280;11780;13.904;100.620;2023-01-16T07:35:22;100906.31;;;29.48;57.73
23223;BME280;11780;13.904;100.620;2023-01-16T07:37:51;100903.56;;;29.48;58.50
23223;BME280;11780;13.904;100.620;2023-01-16T07:40:25;100898.88;;;29.49;59.04
23223;BME280;11780;13.904;100.620;2023-01-16T07:42:56;100896.41;;;29.47;58.56
23223;BME280;11780;13.904;100.620;2023-01-16T07:45:26;100890.41;;;29.45;58.99
23223;BME280;11780;13.904;100.620;2023-01-16T07:47:56;100891.72;;;29.47;57.78
23223;BME280;11780;13.904;100.620;2023-01-16T07:50:26;100898.03;;;29.48;58.69
23223;BME280;11780;13.904;100.620;2023-01-16T07:52:56;100895.00;;;29.50;57.57
23223;BME280;11780;13.904;100.620;2023-01-16T07:55:28;100889.78;;;29.48;58.35
23223;BME280;11780;13.904;100.620;2023-01-16T07:57:58;100885.09;;;29.49;56.81
23223;BME280;11780;13.904;100.620;2023-01-16T08:00:28;100881.22;;;29.50;57.45
23223;BME280;11780;13.904;100.620;2023-01-16T08:02:58;100881.22;;;29.50;56.47
23223;BME280;11780;13.904;100.620;2023-01-16T08:05:28;100877.34;;;29.51;56.70
23223;BME280;11780;13.904;100.620;2023-01-16T08:07:58;100871.81;;;29.51;56.64
23223;BME280;11780;13.904;100.620;2023-01-16T08:10:28;100873.44;;;29.52;56.23
23223;BME280;11780;13.904;100.620;2023-01-16T08:12:58;100868.75;;;29.52;56.72
23223;BME280;11780;13.904;100.620;2023-01-16T08:15:28;100879.16;;;29.55;55.76
23223;BME280;11780;13.904;100.620;2023-01-16T08:17:59;100876.06;;;29.57;55.89
23223;BME280;11780;13.904;100.620;2023-01-16T08:20:28;100871.69;;;29.56;54.89
23223;BME280;11780;13.904;100.620;2023-01-16T08:22:59;100863.13;;;29.57;55.21
23223;BME280;11780;13.904;100.620;2023-01-16T08:25:30;100869.13;;;29.59;54.89
23223;BME280;11780;13.904;100.620;2023-01-16T08:28:00;100868.31;;;29.59;55.15
23223;BME280;11780;13.904;100.620;2023-01-16T08:30:31;100869.94;;;29.60;53.79
23223;BME280;11780;13.904;100.620;2023-01-16T08:33:03;100867.69;;;29.62;54.42
23223;BME280;11780;13.904;100.620;2023-01-16T08:35:35;100865.44;;;29.64;53.71
23223;BME280;11780;13.904;100.620;2023-01-16T08:38:06;100863.81;;;29.63;54.78
23223;BME280;11780;13.904;100.620;2023-01-16T08:40:37;100873.72;;;29.64;54.42
23223;BME280;11780;13.904;100.620;2023-01-16T08:43:08;100867.88;;;29.66;53.94
23223;BME280;11780;13.904;100.620;2023-01-16T08:45:57;100862.38;;;29.66;55.00
23223;BME280;11780;13.904;100.620;2023-01-16T08:48:45;100867.06;;;29.65;54.86
23223;BME280;11780;13.904;100.620;2023-01-16T08:51:34;100869.00;;;29.65;54.80
23223;BME280;11780;13.904;100.620;2023-01-16T08:54:04;100866.25;;;29.65;55.08
23223;BME280;11780;13.904;100.620;2023-01-16T08:56:34;100869.84;;;29.65;54.88
23223;BME280;11780;13.904;100.620;2023-01-16T08:59:04;100870.97;;;29.64;55.07
23223;BME280;11780;13.904;100.620;2023-01-16T09:01:34;100872.09;;;29.63;54.63
23223;BME280;11780;13.904;100.620;2023-01-16T09:04:05;100870.13;;;29.63;54.46
23223;BME280;11780;13.904;100.620;2023-01-16T09:06:37;100869.00;;;29.65;54.76
23223;BME280;11780;13.904;100.620;2023-01-16T09:09:07;100875.03;;;29.67;54.23
23223;BME280;11780;13.904;100.620;2023-01-16T09:11:37;100874.22;;;29.66;54.49
23223;BME280;11780;13.904;100.620;2023-01-16T09:14:26;100869.50;;;29.67;53.62
23223;BME280;11780;13.904;100.620;2023-01-16T09:16:57;100873.06;;;29.67;53.84
23223;BME280;11780;13.904;100.620;2023-01-16T09:19:29;100872.78;;;29.69;53.91
23223;BME280;11780;13.904;100.620;2023-01-16T09:21:59;100873.91;;;29.68;54.65
23223;BME280;11780;13.904;100.620;2023-01-16T09:24:29;100875.22;;;29.70;53.68
23223;BME280;11780;13.904;100.620;2023-01-16T09:27:00;100873.56;;;29.69;53.80
23223;BME280;11780;13.904;100.620;2023-01-16T09:29:31;100881.84;;;29.69;53.90
23223;BME280;11780;13.904;100.620;2023-01-16T09:32:01;100877.47;;;29.68;54.20
23223;BME280;11780;13.904;100.620;2023-01-16T09:34:37;100878.59;;;29.67;54.82
23223;BME280;11780;13.904;100.620;2023-01-16T09:37:08;100882.97;;;29.68;54.58
23223;BME280;11780;13.904;100.620;2023-01-16T09:39:38;100890.13;;;29.69;54.39
23223;BME280;11780;13.904;100.620;2023-01-16T09:45:20;100882.69;;;29.70;54.43
23223;BME280;11780;13.904;100.620;2023-01-16T09:47:54;100889.59;;;29.67;54.09
23223;BME280;11780;13.904;100.620;2023-01-16T09:53:13;100894.00;;;29.68;54.64
23223;BME280;11780;13.904;100.620;2023-01-16T09:56:04;100903.59;;;29.71;54.84
23223;BME280;11780;13.904;100.620;2023-01-16T10:01:55;100898.09;;;29.71;54.47
23223;BME280;11780;13.904;100.620;2023-01-16T10:04:29;100897.25;;;29.70;54.41
23223;BME280;11780;13.904;100.620;2023-01-16T10:12:36;100909.91;;;29.71;54.77
23223;BME280;11780;13.904;100.620;2023-01-16T10:15:28;100903.91;;;29.69;54.72
23223;BME280;11780;13.904;100.620;2023-01-16T10:24:09;100915.75;;;29.70;54.66
23223;BME280;11780;13.904;100.620;2023-01-16T10:27:09;100917.69;;;29.69;54.73
23223;BME280;11780;13.904;100.620;2023-01-16T10:29:58;100921.56;;;29.68;54.83
23223;BME280;11780;13.904;100.620;2023-01-16T10:35:43;100931.97;;;29.71;54.65
23223;BME280;11780;13.904;100.620;2023-01-16T10:40:51;100935.56;;;29.72;54.93
23223;BME280;11780;13.904;100.620;2023-01-16T10:43:35;100938.31;;;29.72;55.09
23223;BME280;11780;13.904;100.620;2023-01-16T10:46:27;100943.50;;;29.73;54.69
23223;BME280;11780;13.904;100.620;2023-01-16T10:49:18;100943.84;;;29.72;54.96
23223;BME280;11780;13.904;100.620;2023-01-16T10:52:01;100954.53;;;29.73;55.07
23223;BME280;11780;13.904;100.620;2023-01-16T10:54:32;100959.53;;;29.71;55.01
23223;BME280;11780;13.904;100.620;2023-01-16T10:57:10;100956.78;;;29.71;54.80
23223;BME280;11780;13.904;100.620;2023-01-16T10:59:49;100959.53;;;29.71;55.16
23223;BME280;11780;13.904;100.620;2023-01-16T11:02:41;100964.78;;;29.73;55.15
23223;BME280;11780;13.904;100.620;2023-01-16T11:05:23;100967.81;;;29.71;55.05
23223;BME280;11780;13.904;100.620;2023-01-16T11:07:55;100973.34;;;29.71;55.16
23223;BME280;11780;13.904;100.620;2023-01-16T11:10:25;100971.41;;;29.72;55.07
23223;BME280;11780;13.904;100.620;2023-01-16T11:12:55;100975.28;;;29.71;55.23
23223;BME280;11780;13.904;100.620;2023-01-16T11:19:43;100983.84;;;29.69;55.54
23223;BME280;11780;13.904;100.620;2023-01-16T11:22:27;100986.31;;;29.71;55.54
23223;BME280;11780;13.904;100.620;2023-01-16T11:24:58;100989.06;;;29.71;55.43
23223;BME280;11780;13.904;100.620;2023-01-16T11:27:31;100991.00;;;29.70;55.54
23223;BME280;11780;13.904;100.620;2023-01-16T11:30:15;100996.50;;;29.70;55.74
23223;BME280;11780;13.904;100.620;2023-01-16T11:32:47;100997.63;;;29.69;55.67
23223;BME280;11780;13.904;100.620;2023-01-16T11:35:18;100998.75;;;29.68;55.65
23223;BME280;11780;13.904;100.620;2023-01-16T11:37:50;101016.63;;;29.71;55.74
23223;BME280;11780;13.904;100.620;2023-01-16T11:40:24;101014.69;;;29.71;55.83
23223;BME280;11780;13.904;100.620;2023-01-16T11:42:57;101020.19;;;29.71;55.70
23223;BME280;11780;13.904;100.620;2023-01-16T11:45:47;101022.97;;;29.71;55.21
23223;BME280;11780;13.904;100.620;2023-01-16T11:48:39;101024.09;;;29.70;55.50
23223;BME280;11780;13.904;100.620;2023-01-16T11:51:16;101033.19;;;29.71;55.50
23223;BME280;11780;13.904;100.620;2023-01-16T11:53:47;101030.72;;;29.69;55.54
23223;BME280;11780;13.904;100.620;2023-01-16T12:02:41;101035.09;;;29.70;55.99
23223;BME280;11780;13.904;100.620;2023-01-16T12:05:31;101040.63;;;29.70;55.83
23223;BME280;11780;13.904;100.620;2023-01-16T12:16:57;101052.47;;;29.71;56.42
23223;BME280;11780;13.904;100.620;2023-01-16T12:19:48;101052.78;;;29.69;56.30
23223;BME280;11780;13.904;100.620;2023-01-16T12:36:51;101081.78;;;29.67;56.72
23223;BME280;11780;13.904;100.620;2023-01-16T12:42:23;101094.25;;;29.64;56.85
23223;BME280;11780;13.904;100.620;2023-01-16T12:45:47;101092.28;;;29.65;56.25
23223;BME280;11780;13.904;100.620;2023-01-16T12:57:35;101105.78;;;29.66;56.12
23223;BME280;11780;13.904;100.620;2023-01-16T13:00:11;101108.03;;;29.64;55.95
23223;BME280;11780;13.904;100.620;2023-01-16T13:05:18;101120.06;;;29.68;56.37
23223;BME280;11780;13.904;100.620;2023-01-16T13:08:17;101118.94;;;29.69;56.52
23223;BME280;11780;13.904;100.620;2023-01-16T13:10:49;101118.75;;;29.66;56.50
23223;BME280;11780;13.904;100.620;2023-01-16T13:13:50;101123.94;;;29.67;56.16
23223;BME280;11780;13.904;100.620;2023-01-16T13:16:27;101128.13;;;29.65;56.33
23223;BME280;11780;13.904;100.620;2023-01-16T13:19:19;101139.16;;;29.65;56.46
23223;BME280;11780;13.904;100.620;2023-01-16T13:22:23;101136.41;;;29.65;56.37
23223;BME280;11780;13.904;100.620;2023-01-16T13:25:17;101145.19;;;29.67;56.13
23223;BME280;11780;13.904;100.620;2023-01-16T13:28:06;101149.06;;;29.66;56.01
23223;BME280;11780;13.904;100.620;2023-01-16T13:32:44;101163.47;;;29.62;56.04
23223;BME280;11780;13.904;100.620;2023-01-16T13:35:21;101166.22;;;29.62;56.05
23223;BME280;11780;13.904;100.620;2023-01-16T13:43:24;101178.25;;;29.53;55.66
23223;BME280;11780;13.904;100.620;2023-01-16T13:46:16;101180.19;;;29.52;55.71
23223;BME280;11780;13.904;100.620;2023-01-16T13:48:52;101186.22;;;29.54;55.63
23223;BME280;11780;13.904;100.620;2023-01-16T13:51:23;101185.63;;;29.57;55.29
23223;BME280;11780;13.904;100.620;2023-01-16T13:53:59;101180.50;;;29.51;55.56
23223;BME280;11780;13.904;100.620;2023-01-16T13:56:33;101182.63;;;29.54;55.13
23223;BME280;11780;13.904;100.620;2023-01-16T13:59:41;101185.72;;;29.52;55.10
23223;BME280;11780;13.904;100.620;2023-01-16T14:10:46;101189.91;;;29.50;55.17
23223;BME280;11780;13.904;100.620;2023-01-16T14:13:37;101187.34;;;29.53;55.41
23223;BME280;11780;13.904;100.620;2023-01-16T14:21:46;101190.22;;;29.62;56.00
23223;BME280;11780;13.904;100.620;2023-01-16T14:24:55;101184.78;;;29.57;55.96
23223;BME280;11780;13.904;100.620;2023-01-16T14:27:39;101185.00;;;29.60;56.11
23223;BME280;11780;13.904;100.620;2023-01-16T14:30:23;101194.63;;;29.63;56.36
23223;BME280;11780;13.904;100.620;2023-01-16T14:32:57;101196.25;;;29.64;56.55
23223;BME280;11780;13.904;100.620;2023-01-16T14:35:40;101191.88;;;29.63;56.54
23223;BME280;11780;13.904;100.620;2023-01-16T14:38:18;101193.50;;;29.64;56.60
23223;BME280;11780;13.904;100.620;2023-01-16T14:40:58;101194.63;;;29.63;56.24
23223;BME280;11780;13.904;100.620;2023-01-16T14:44:20;101197.91;;;29.65;56.36
23223;BME280;11780;13.904;100.620;2023-01-16T14:50:14;101197.91;;;29.65;56.66
23223;BME280;11780;13.904;100.620;2023-01-16T14:56:07;101201.75;;;29.64;57.19
23223;BME280;11780;13.904;100.620;2023-01-16T14:58:45;101202.38;;;29.61;57.33
23223;BME280;11780;13.904;100.620;2023-01-16T15:01:31;101205.94;;;29.61;57.55
23223;BME280;11780;13.904;100.620;2023-01-16T15:04:22;101205.66;;;29.63;57.79
23223;BME280;11780;13.904;100.620;2023-01-16T15:06:57;101202.66;;;29.59;57.91
23223;BME280;11780;13.904;100.620;2023-01-16T15:09:29;101202.38;;;29.61;57.93
23223;BME280;11780;13.904;100.620;2023-01-16T15:12:02;101205.66;;;29.63;57.90
23223;BME280;11780;13.904;100.620;2023-01-16T15:14:37;101198.38;;;29.67;57.70
23223;BME280;11780;13.904;100.620;2023-01-16T15:17:35;101191.88;;;29.63;57.81
23223;BME280;11780;13.904;100.620;2023-01-16T15:20:28;101203.19;;;29.61;57.85
23223;BME280;11780;13.904;100.620;2023-01-16T15:23:25;101197.66;;;29.61;58.00
23223;BME280;11780;13.904;100.620;2023-01-16T15:29:04;101197.06;;;29.65;58.70
23223;BME280;11780;13.904;100.620;2023-01-16T15:31:42;101192.97;;;29.62;58.70
23223;BME280;11780;13.904;100.620;2023-01-16T15:34:18;101195.22;;;29.60;58.88
23223;BME280;11780;13.904;100.620;2023-01-16T15:36:50;101194.09;;;29.61;58.69
23223;BME280;11780;13.904;100.620;2023-01-16T15:39:39;101196.34;;;29.59;59.00
23223;BME280;11780;13.904;100.620;2023-01-16T15:42:16;101185.00;;;29.60;59.12
23223;BME280;11780;13.904;100.620;2023-01-16T15:45:28;101188.88;;;29.59;59.09
23223;BME280;11780;13.904;100.620;2023-01-16T15:51:18;101184.19;;;29.60;59.28
23223;BME280;11780;13.904;100.620;2023-01-16T15:53:50;101189.69;;;29.60;59.75